Time;durP1;ratioP1;P1;durP2;ratioP2;P2;SDS_P1;SDS_P2;PMS_P1;PMS_P2;Temp;Humidity;BMP_temperature;BMP_pressure;BME280_temperature;BME280_humidity;BME280_pressure;Samples;Min_cycle;Max_cycle;Signal;HPM_P1;HPM_P2
2022/05/10 00:03:50;;;;;;;2.80;2.53;;;;;;;24.08;44.58;100990.88;20426857;28;101676;-76
2022/05/10 00:13:50;;;;;;;3.17;2.47;;;;;;;24.09;44.39;100977.50;20431626;28;98013;-76
2022/05/10 00:23:52;;;;;;;2.50;2.30;;;;;;;24.16;44.41;100980.50;20444250;28;97717;-75
2022/05/10 00:33:53;;;;;;;2.60;2.40;;;;;;;24.20;44.11;100968.72;20448927;28;98271;-76
2022/05/10 00:44:27;;;;;;;2.50;2.30;;;;;;;24.20;44.37;100958.13;20452813;28;97049;-76
2022/05/10 00:55:05;;;;;;;2.65;2.40;;;;;;;24.20;44.18;100952.00;20456782;28;98867;-76
2022/05/10 01:05:16;;;;;;;3.40;2.60;;;;;;;24.17;44.21;100945.16;20438169;28;97652;-76
2022/05/10 01:15:22;;;;;;;2.60;2.40;;;;;;;24.14;44.30;100938.31;20437592;28;97813;-76
2022/05/10 01:25:42;;;;;;;3.13;2.63;;;;;;;24.23;44.93;100943.78;20414353;28;99478;-77
2022/05/10 01:35:51;;;;;;;7.07;2.20;;;;;;;24.25;44.71;100928.63;20442868;28;98602;-77
2022/05/10 01:45:55;;;;;;;3.33;2.38;;;;;;;24.26;44.63;100922.38;20441921;28;100848;-77
2022/05/10 01:56:15;;;;;;;3.90;2.45;;;;;;;24.24;44.70;100926.94;20449459;28;97053;-77
2022/05/10 02:06:24;;;;;;;2.92;2.30;;;;;;;24.23;44.64;100919.97;20441918;28;99676;-77
2022/05/10 02:16:40;;;;;;;2.40;2.20;;;;;;;24.23;44.47;100920.84;20454590;28;96903;-77
2022/05/10 02:26:48;;;;;;;2.50;2.30;;;;;;;24.23;44.60;100909.41;20453056;28;100947;-77
2022/05/10 02:36:48;;;;;;;3.40;2.40;;;;;;;24.22;44.75;100910.38;20445452;28;101092;-76
2022/05/10 02:46:49;;;;;;;2.15;1.95;;;;;;;24.22;44.48;100902.44;20442461;28;101103;-76
2022/05/10 02:56:51;;;;;;;3.05;2.30;;;;;;;24.22;45.01;100897.16;20451769;28;97392;-75
2022/05/10 03:06:52;;;;;;;2.30;2.10;;;;;;;24.20;44.74;100905.19;20441453;28;97619;-76
2022/05/10 03:16:52;;;;;;;3.63;2.10;;;;;;;24.19;44.70;100895.56;20436134;28;96700;-75
2022/05/10 03:26:53;;;;;;;2.67;2.10;;;;;;;24.20;44.69;100896.44;20443768;28;97284;-76
2022/05/10 03:36:54;;;;;;;2.70;2.30;;;;;;;24.17;44.96;100901.97;20443471;28;99012;-76
2022/05/10 03:46:54;;;;;;;2.38;2.17;;;;;;;24.16;45.09;100911.72;20447275;28;96937;-75
2022/05/10 03:56:55;;;;;;;2.80;2.60;;;;;;;24.17;44.76;100894.03;20432612;28;100077;-77
2022/05/10 04:06:55;;;;;;;2.55;2.22;;;;;;;24.16;44.78;100895.84;20434961;28;97627;-77
2022/05/10 04:16:56;;;;;;;3.88;2.10;;;;;;;24.15;45.02;100912.69;20423055;28;97380;-76
2022/05/10 04:26:57;;;;;;;11.18;2.90;;;;;;;24.15;44.91;100912.69;20429184;28;97735;-75
2022/05/10 04:36:57;;;;;;;9.40;3.05;;;;;;;23.78;43.11;100924.41;20384674;28;101991;-79
2022/05/10 04:46:58;;;;;;;5.80;3.13;;;;;;;23.67;43.06;100930.56;20414063;28;101226;-77
2022/05/10 04:56:58;;;;;;;7.72;3.22;;;;;;;23.44;42.49;100936.81;20447306;28;97452;-77
2022/05/10 05:06:59;;;;;;;5.75;3.40;;;;;;;23.26;41.99;100933.81;20450568;28;97393;-78
2022/05/10 05:16:59;;;;;;;3.95;3.00;;;;;;;23.34;41.85;100944.63;20437412;28;99356;-77
2022/05/10 05:27:00;;;;;;;6.28;3.40;;;;;;;23.23;41.27;100944.59;20451562;28;97183;-77
2022/05/10 05:37:46;;;;;;;10.77;4.20;;;;;;;23.35;41.78;100954.22;20450237;28;98872;-78
2022/05/10 05:47:22;;;;;;;8.27;3.10;;;;;;;23.23;41.11;100952.53;20430201;28;97559;-77
2022/05/10 05:57:23;;;;;;;5.23;3.23;;;;;;;23.07;41.20;100956.34;20439696;28;97729;-77
2022/05/10 06:07:23;;;;;;;5.78;2.97;;;;;;;23.05;40.82;100966.19;20440760;28;97372;-76
2022/05/10 06:17:24;;;;;;;6.90;2.88;;;;;;;23.26;41.17;100965.53;20447143;28;97454;-76
2022/05/10 06:27:24;;;;;;;3.30;2.75;;;;;;;23.23;40.58;100963.09;20417014;28;98124;-76
2022/05/10 06:47:48;;;;;;;5.32;2.90;;;;;;;22.67;40.81;100954.09;20425810;28;99075;-74
2022/05/10 06:57:49;;;;;;;6.45;3.47;;;;;;;22.73;40.83;100950.13;20433344;28;98670;-75
2022/05/10 07:07:50;;;;;;;7.07;3.08;;;;;;;22.68;40.24;100953.13;20443115;28;97970;-75
2022/05/10 07:17:52;;;;;;;5.05;3.17;;;;;;;22.53;39.07;100949.81;20439842;28;98004;-76
2022/05/10 07:27:53;;;;;;;8.98;2.97;;;;;;;22.69;38.52;100946.88;20444409;28;99658;-75
2022/05/10 07:37:54;;;;;;;4.95;2.55;;;;;;;22.63;38.39;100955.25;20452593;28;98699;-76
2022/05/10 07:47:54;;;;;;;11.10;2.88;;;;;;;22.93;39.78;100956.56;20428246;28;96983;-76
2022/05/10 07:57:55;;;;;;;10.05;2.47;;;;;;;22.97;38.57;100948.28;20429573;28;98688;-75
2022/05/10 08:07:55;;;;;;;7.50;2.90;;;;;;;22.91;37.46;100948.75;20410150;28;97740;-76
2022/05/10 08:17:56;;;;;;;5.57;2.40;;;;;;;22.92;37.68;100937.22;20429202;28;101204;-76
2022/05/10 08:27:56;;;;;;;7.05;2.60;;;;;;;22.86;37.48;100930.63;20449870;28;96987;-76
2022/05/10 08:37:57;;;;;;;3.83;2.13;;;;;;;23.14;39.57;100927.66;20459186;28;102681;-76
2022/05/10 08:47:57;;;;;;;7.00;2.25;;;;;;;23.30;40.03;100927.31;20458156;28;99479;-77
2022/05/10 08:58:19;;;;;;;4.13;2.35;;;;;;;23.41;39.69;100916.78;20485442;28;98877;-77
2022/05/10 09:08:54;;;;;;;4.13;2.13;;;;;;;23.54;39.90;100915.81;20474674;28;97801;-77
2022/05/10 09:18:55;;;;;;;3.67;2.60;;;;;;;23.13;33.81;100904.81;20466241;28;98314;-75
2022/05/10 09:29:07;;;;;;;5.53;2.38;;;;;;;23.21;34.73;100909.56;20454994;28;97933;-77
2022/05/10 09:39:13;;;;;;;;;;;;;;;23.22;34.29;100905.94;20447764;28;97498;-78
2022/05/10 09:49:37;;;;;;;4.60;2.58;;;;;;;23.31;34.75;100894.66;20485296;28;97089;-80
2022/05/10 09:59:45;;;;;;;4.82;2.90;;;;;;;23.45;34.99;100894.41;20466627;28;97612;-78
2022/05/10 10:09:51;;;;;;;2.92;2.30;;;;;;;23.54;35.44;100889.38;20466461;28;97984;-78
2022/05/10 10:19:56;;;;;;;5.35;2.83;;;;;;;23.60;34.96;100876.47;20491635;28;97118;-78
2022/05/10 10:30:22;;;;;;;4.10;3.38;;;;;;;23.77;34.99;100874.31;20465311;28;96918;-78
2022/05/10 10:40:40;;;;;;;4.85;2.67;;;;;;;23.96;34.64;100856.00;20445078;28;100350;-77
2022/05/10 10:50:40;;;;;;;5.35;3.00;;;;;;;24.17;33.83;100836.66;20469359;28;97318;-79
2022/05/10 11:00:55;;;;;;;4.97;2.50;;;;;;;24.34;33.71;100829.97;20439111;28;97099;-77
2022/05/10 11:11:27;;;;;;;4.20;2.67;;;;;;;24.45;32.11;100815.84;20450379;28;97288;-78
2022/05/10 11:22:00;;;;;;;4.55;2.70;;;;;;;24.48;32.44;100804.16;20461509;28;97538;-80
2022/05/10 11:32:38;;;;;;;8.93;2.75;;;;;;;24.36;33.29;100787.50;20460341;28;96986;-79
2022/05/10 11:43:16;;;;;;;3.83;2.70;;;;;;;24.37;33.44;100792.63;20458435;28;97054;-80
2022/05/10 11:53:55;;;;;;;3.15;2.42;;;;;;;24.37;33.53;100778.59;20470819;28;96960;-79
2022/05/10 12:03:56;;;;;;;5.78;2.60;;;;;;;24.45;34.24;100776.94;20452285;28;97593;-79
2022/05/10 12:24:20;;;;;;;4.30;2.15;;;;;;;24.59;35.29;100759.88;20400798;28;100440;-79
2022/05/10 12:34:42;;;;;;;4.78;2.58;;;;;;;24.77;36.13;100746.06;20434081;28;97241;-79
2022/05/10 12:44:58;;;;;;;5.15;2.38;;;;;;;24.86;35.78;100720.56;20407740;28;97865;-80
2022/05/10 12:55:05;;;;;;;4.35;1.83;;;;;;;25.03;34.31;100697.88;20437592;28;98557;-79
2022/05/10 13:05:13;;;;;;;5.93;1.83;;;;;;;25.16;32.08;100679.91;20421400;28;98213;-80
2022/05/10 13:15:18;;;;;;;3.78;2.00;;;;;;;25.24;31.56;100658.88;20439274;28;98414;-78
2022/05/10 13:25:39;;;;;;;2.63;2.20;;;;;;;25.26;31.40;100642.81;20436689;28;98424;-78
2022/05/10 13:35:41;;;;;;;5.50;2.17;;;;;;;25.38;31.12;100625.81;20429246;28;97871;-81
2022/05/10 13:45:48;;;;;;;2.97;1.90;;;;;;;25.44;30.57;100599.72;20442834;28;100446;-81
2022/05/10 13:55:54;;;;;;;3.38;2.05;;;;;;;25.48;30.42;100586.03;20462866;28;100701;-83
2022/05/10 14:06:02;;;;;;;3.22;1.90;;;;;;;25.47;29.53;100580.88;20454819;28;96939;-78
2022/05/10 14:16:03;;;;;;;2.88;2.05;;;;;;;25.54;29.96;100571.38;20445386;28;101604;-75
2022/05/10 14:26:42;;;;;;;4.30;2.20;;;;;;;25.37;29.44;100560.53;20430011;28;101367;-76
2022/05/10 14:36:46;;;;;;;3.78;1.90;;;;;;;25.54;30.31;100550.19;20441628;28;97262;-76
2022/05/10 14:46:57;;;;;;;4.47;2.25;;;;;;;25.59;30.11;100547.91;20440540;28;97453;-78
2022/05/10 14:57:00;;;;;;;1.92;1.73;;;;;;;25.70;29.32;100538.97;20421799;28;102204;-76
2022/05/10 15:07:01;;;;;;;6.50;2.17;;;;;;;25.83;30.67;100520.91;20421442;28;99482;-77
2022/05/10 15:17:11;;;;;;;5.80;1.70;;;;;;;25.89;27.67;100530.09;20428235;28;97148;-76
2022/05/10 15:27:19;;;;;;;3.93;2.13;;;;;;;26.25;27.95;100529.38;20431709;28;97269;-76
2022/05/10 15:37:22;;;;;;;4.63;2.20;;;;;;;26.59;27.46;100520.75;20445372;28;97351;-77
2022/05/10 15:47:26;;;;;;;2.65;1.80;;;;;;;27.10;25.57;100513.91;20451688;28;98009;-76
2022/05/10 15:57:27;;;;;;;3.70;1.92;;;;;;;26.63;26.94;100511.50;20427717;28;97573;-75
2022/05/10 16:07:29;;;;;;;4.60;1.90;;;;;;;27.07;26.06;100506.22;20445132;28;98200;-76
2022/05/10 16:17:30;;;;;;;4.10;2.15;;;;;;;26.69;25.99;100506.41;20459427;28;97631;-75
2022/05/10 16:37:50;;;;;;;5.82;2.00;;;;;;;26.34;28.75;100499.25;20423504;28;100514;-75
2022/05/10 16:47:50;;;;;;;11.70;2.95;;;;;;;26.28;28.51;100500.72;20408346;28;97967;-76
2022/05/10 16:57:51;;;;;;;4.30;2.20;;;;;;;26.16;27.27;100499.25;20419745;28;97460;-76
2022/05/10 17:07:52;;;;;;;5.40;2.07;;;;;;;26.05;27.62;100508.22;20423965;28;98608;-75
2022/05/10 17:17:54;;;;;;;3.20;2.20;;;;;;;25.93;26.27;100504.06;20425848;28;102373;-73
2022/05/10 17:28:18;;;;;;;;;;;;;;;25.82;26.35;100497.19;20432749;28;96973;-73
2022/05/10 17:38:18;;;;;;;5.68;2.10;;;;;;;25.65;26.41;100507.56;20417759;28;98677;-73
2022/05/10 17:48:18;;;;;;;5.18;1.92;;;;;;;25.41;25.89;100514.22;20435813;28;101859;-72
2022/05/10 17:58:19;;;;;;;42.47;18.92;;;;;;;25.33;26.84;100516.72;20416421;28;98446;-74
2022/05/10 18:08:19;;;;;;;15.95;5.30;;;;;;;25.09;27.44;100525.94;20440628;28;101716;-73
2022/05/10 18:18:21;;;;;;;6.83;2.73;;;;;;;25.20;27.34;100532.06;20408553;28;100381;-75
2022/05/10 18:28:22;;;;;;;4.97;2.47;;;;;;;25.08;27.65;100536.69;20401614;28;98795;-74
2022/05/10 18:38:23;;;;;;;3.67;2.03;;;;;;;25.10;27.88;100550.63;20409349;28;97327;-77
2022/05/10 18:48:24;;;;;;;4.60;2.15;;;;;;;25.08;27.94;100548.13;20437336;28;97081;-75
2022/05/10 18:58:25;;;;;;;4.20;2.35;;;;;;;25.00;28.39;100563.88;20397856;28;99621;-75
2022/05/10 19:08:25;;;;;;;8.18;5.40;;;;;;;24.94;29.05;100567.09;20436651;28;98789;-74
2022/05/10 19:18:26;;;;;;;5.40;3.60;;;;;;;24.87;28.90;100569.44;20437537;28;97129;-75
2022/05/10 19:28:26;;;;;;;7.03;3.57;;;;;;;24.84;30.09;100577.69;20422945;28;100899;-74
2022/05/10 19:38:27;;;;;;;7.13;3.58;;;;;;;24.97;30.61;100585.34;20426825;28;98160;-74
2022/05/10 19:48:27;;;;;;;10.20;3.55;;;;;;;24.96;31.46;100588.97;20392013;28;100962;-73
2022/05/10 19:58:28;;;;;;;5.32;3.10;;;;;;;24.99;31.62;100590.53;20436291;28;97188;-73
2022/05/10 20:08:30;;;;;;;6.47;3.42;;;;;;;25.02;32.21;100592.88;20428469;28;99893;-72
2022/05/10 20:18:30;;;;;;;;;;;;;;;25.04;32.94;100590.94;20428668;28;98266;-74
2022/05/10 20:28:31;;;;;;;9.05;3.10;;;;;;;25.02;34.65;100595.53;20443201;28;97947;-74
2022/05/10 20:38:31;;;;;;;6.80;3.03;;;;;;;24.99;35.04;100591.34;20446626;28;97929;-73
2022/05/10 20:48:32;;;;;;;4.68;2.72;;;;;;;25.02;34.66;100592.88;20438460;28;100310;-74
2022/05/10 20:58:33;;;;;;;5.63;2.88;;;;;;;25.01;34.93;100591.22;20442094;28;97301;-75
2022/05/10 21:08:34;;;;;;;5.70;2.77;;;;;;;24.94;35.62;100590.94;20431752;28;98408;-75
2022/05/10 21:18:35;;;;;;;4.70;2.50;;;;;;;24.92;35.97;100582.28;20424375;28;97624;-74
2022/05/10 21:28:36;;;;;;;6.38;2.50;;;;;;;24.94;35.79;100578.53;20415832;28;97498;-75
2022/05/10 21:38:37;;;;;;;4.97;2.80;;;;;;;24.91;36.11;100591.19;20429033;28;100874;-75
2022/05/10 21:48:37;;;;;;;5.43;3.03;;;;;;;24.90;36.40;100600.97;20416123;28;99932;-75
2022/05/10 21:58:38;;;;;;;4.88;2.70;;;;;;;24.93;36.32;100599.84;20422091;28;97710;-75
2022/05/10 22:08:38;;;;;;;5.68;2.70;;;;;;;24.94;36.62;100597.06;20424962;28;100507;-74
2022/05/10 22:18:40;;;;;;;3.17;2.58;;;;;;;24.94;36.47;100594.41;20425372;28;97910;-75
2022/05/10 22:28:41;;;;;;;3.63;2.70;;;;;;;24.89;36.88;100604.59;20420842;28;100957;-74
2022/05/10 22:38:42;;;;;;;4.82;2.90;;;;;;;24.90;36.89;100603.63;20429216;28;97040;-74
2022/05/10 22:48:44;;;;;;;3.28;2.35;;;;;;;24.91;36.60;100597.34;20424411;28;97278;-74
2022/05/10 22:58:44;;;;;;;4.80;2.78;;;;;;;24.94;36.56;100602.34;20419255;28;97628;-76
2022/05/10 23:08:45;;;;;;;4.80;2.50;;;;;;;24.88;37.37;100591.50;20424199;28;97343;-77
2022/05/10 23:18:45;;;;;;;6.78;2.63;;;;;;;24.92;36.82;100595.53;20430187;28;97803;-77
2022/05/10 23:28:46;;;;;;;6.25;2.80;;;;;;;24.91;37.28;100599.16;20428297;28;103262;-77
2022/05/10 23:38:46;;;;;;;5.15;3.20;;;;;;;24.90;37.36;100592.16;20425170;28;101642;-76
2022/05/10 23:48:47;;;;;;;4.78;3.10;;;;;;;24.91;37.27;100583.25;20416712;28;97096;-77
2022/05/10 23:58:47;;;;;;;6.93;2.72;;;;;;;24.89;37.56;100578.09;20412057;28;97859;-77
